Time;durP1;ratioP1;P1;durP2;ratioP2;P2;SDS_P1;SDS_P2;PMS_P1;PMS_P2;Temp;Humidity;BMP_temperature;BMP_pressure;BME280_temperature;BME280_humidity;BME280_pressure;Samples;Min_cycle;Max_cycle;Signal;HPM_P1;HPM_P2
2022/06/21 00:00:48;;;;;;;3.58;1.23;;;10.90;99.90;;;;;;5066571;28;20051;-64
2022/06/21 00:03:18;;;;;;;2.63;1.50;;;10.80;99.90;;;;;;5072046;28;20474;-65
2022/06/21 00:05:47;;;;;;;4.88;1.77;;;10.80;99.90;;;;;;5071858;28;20024;-65
2022/06/21 00:08:23;;;;;;;5.70;1.88;;;10.80;99.90;;;;;;5072649;28;20047;-66
2022/06/21 00:10:50;;;;;;;6.72;1.77;;;10.80;99.90;;;;;;5071843;28;20064;-65
2022/06/21 00:13:18;;;;;;;6.05;1.90;;;10.80;99.90;;;;;;5072283;28;20036;-65
2022/06/21 00:15:46;;;;;;;4.47;1.77;;;10.70;99.90;;;;;;5070939;28;20047;-65
2022/06/21 00:18:14;;;;;;;4.28;1.40;;;10.80;99.90;;;;;;5070307;28;20047;-63
2022/06/21 00:20:40;;;;;;;4.97;1.70;;;10.70;99.90;;;;;;5070657;28;20442;-64
2022/06/21 00:23:11;;;;;;;5.72;1.77;;;10.70;99.90;;;;;;5055062;28;20124;-64
2022/06/21 00:25:37;;;;;;;6.63;2.00;;;10.60;99.90;;;;;;5071420;28;20429;-66
2022/06/21 00:28:03;;;;;;;6.65;2.42;;;10.60;99.90;;;;;;5073002;28;20028;-65
2022/06/21 00:30:29;;;;;;;4.97;2.17;;;10.60;99.90;;;;;;5069219;28;20037;-64
2022/06/21 00:32:55;;;;;;;6.57;2.17;;;10.60;99.90;;;;;;5072399;28;20446;-65
2022/06/21 00:35:22;;;;;;;4.68;1.35;;;10.60;99.90;;;;;;5071221;28;20050;-65
2022/06/21 00:37:49;;;;;;;3.22;1.50;;;10.60;99.90;;;;;;5070811;28;20044;-64
2022/06/21 00:40:20;;;;;;;4.28;1.80;;;10.50;99.90;;;;;;5071037;28;20476;-65
2022/06/21 00:42:51;;;;;;;4.40;1.60;;;10.50;99.90;;;;;;5070977;28;20045;-64
2022/06/21 00:45:29;;;;;;;6.03;1.80;;;10.50;99.90;;;;;;5071525;28;20119;-63
2022/06/21 00:47:58;;;;;;;1.95;1.50;;;10.50;99.90;;;;;;5070091;28;20072;-65
2022/06/21 00:50:34;;;;;;;4.43;1.83;;;10.50;99.90;;;;;;5052172;28;20052;-65
2022/06/21 00:53:06;;;;;;;4.15;1.70;;;10.40;99.90;;;;;;5053843;28;20109;-63
2022/06/21 00:56:01;;;;;;;5.32;2.00;;;10.40;99.90;;;;;;5071128;28;20123;-65
2022/06/21 00:58:30;;;;;;;5.22;2.30;;;10.40;99.90;;;;;;5071101;28;20040;-64
2022/06/21 01:01:07;;;;;;;4.50;1.42;;;10.40;99.90;;;;;;5069416;28;20559;-65
2022/06/21 01:03:38;;;;;;;2.63;1.30;;;10.40;99.90;;;;;;5070953;28;20111;-64
2022/06/21 01:06:09;;;;;;;2.83;1.40;;;10.30;99.90;;;;;;5053926;28;20032;-62
2022/06/21 01:08:39;;;;;;;3.30;1.20;;;10.30;99.90;;;;;;5072138;28;20037;-65
2022/06/21 01:11:11;;;;;;;3.15;1.13;;;10.30;99.90;;;;;;5070704;28;20298;-63
2022/06/21 01:13:44;;;;;;;2.75;1.30;;;10.20;99.90;;;;;;5068632;28;20051;-64
2022/06/21 01:16:11;;;;;;;5.15;1.40;;;10.20;99.90;;;;;;5070337;28;20067;-63
2022/06/21 01:18:38;;;;;;;2.72;1.50;;;10.10;99.90;;;;;;5070424;28;20044;-65
2022/06/21 01:21:04;;;;;;;4.90;1.75;;;10.10;99.90;;;;;;5070610;28;20456;-65
2022/06/21 01:23:43;;;;;;;3.25;1.90;;;10.10;99.90;;;;;;5069140;28;20119;-64
2022/06/21 01:26:31;;;;;;;2.63;1.40;;;10.10;99.90;;;;;;5069057;28;20368;-64
2022/06/21 01:28:58;;;;;;;2.47;1.73;;;10.10;99.90;;;;;;5070185;28;20048;-64
2022/06/21 01:31:24;;;;;;;4.47;1.52;;;10.10;99.90;;;;;;5069295;28;20036;-65
2022/06/21 01:33:50;;;;;;;6.10;1.80;;;10.00;99.90;;;;;;5070292;28;20036;-64
2022/06/21 01:36:21;;;;;;;3.72;1.80;;;10.00;99.90;;;;;;5069193;28;20048;-64
2022/06/21 01:38:55;;;;;;;5.68;1.92;;;10.00;99.90;;;;;;5070312;28;20056;-64
2022/06/21 01:41:28;;;;;;;2.63;1.60;;;10.00;99.90;;;;;;5069062;28;20141;-63
2022/06/21 01:43:57;;;;;;;4.18;1.50;;;10.00;99.90;;;;;;5068514;28;20051;-65
2022/06/21 01:46:27;;;;;;;3.20;1.40;;;9.90;99.90;;;;;;5069298;28;20554;-64
2022/06/21 01:49:00;;;;;;;4.47;1.67;;;9.90;99.90;;;;;;5070259;28;20468;-64
2022/06/21 01:51:34;;;;;;;6.63;1.83;;;9.80;99.90;;;;;;5069760;28;20041;-65
2022/06/21 01:54:01;;;;;;;5.72;2.00;;;9.80;99.90;;;;;;5067693;28;20051;-65
2022/06/21 01:56:32;;;;;;;1.83;1.40;;;9.80;99.90;;;;;;5070442;28;20071;-64
2022/06/21 01:59:10;;;;;;;6.13;1.85;;;9.80;99.90;;;;;;5071152;28;20426;-63
2022/06/21 02:01:59;;;;;;;3.80;1.63;;;9.80;99.90;;;;;;5069577;28;20076;-65
2022/06/21 02:04:27;;;;;;;4.15;1.60;;;9.70;99.90;;;;;;5068051;28;20105;-65
2022/06/21 02:06:55;;;;;;;1.80;1.30;;;9.70;99.90;;;;;;5069997;28;20398;-64
2022/06/21 02:09:27;;;;;;;3.13;1.65;;;9.70;99.90;;;;;;5069481;28;20036;-65
2022/06/21 02:12:06;;;;;;;3.60;1.40;;;9.60;99.90;;;;;;5069944;28;20044;-64
2022/06/21 02:14:40;;;;;;;3.28;1.65;;;9.60;99.90;;;;;;5069234;28;20067;-65
2022/06/21 02:17:11;;;;;;;4.68;1.75;;;9.60;99.90;;;;;;5067946;28;20105;-63
2022/06/21 02:19:45;;;;;;;2.40;1.58;;;9.60;99.90;;;;;;5068390;28;20049;-66
2022/06/21 02:22:24;;;;;;;4.38;1.60;;;9.60;99.90;;;;;;5069552;28;20082;-66
2022/06/21 02:24:51;;;;;;;4.63;2.05;;;9.50;99.90;;;;;;5067606;28;20040;-63
2022/06/21 02:27:21;;;;;;;2.78;1.30;;;9.50;99.90;;;;;;5067713;28;20033;-63
2022/06/21 02:29:51;;;;;;;3.65;1.92;;;9.40;99.90;;;;;;5069051;28;20124;-65
2022/06/21 02:32:38;;;;;;;3.80;1.60;;;9.30;99.90;;;;;;5068519;28;20037;-65
2022/06/21 02:35:20;;;;;;;1.90;1.40;;;9.30;99.90;;;;;;5069260;28;20048;-63
2022/06/21 02:37:48;;;;;;;5.72;1.60;;;9.30;99.90;;;;;;5067096;28;20048;-66
2022/06/21 02:40:28;;;;;;;2.00;1.30;;;9.20;99.90;;;;;;5068779;28;20049;-66
2022/06/21 02:43:00;;;;;;;6.32;1.40;;;9.20;99.90;;;;;;5068772;28;20036;-66
2022/06/21 02:45:55;;;;;;;4.57;1.60;;;9.20;99.90;;;;;;5068343;28;20044;-65
2022/06/21 02:48:26;;;;;;;2.35;1.60;;;9.20;99.90;;;;;;5068575;28;20044;-65
2022/06/21 02:50:58;;;;;;;2.97;1.63;;;9.20;99.90;;;;;;5068725;28;20399;-64
2022/06/21 02:53:50;;;;;;;3.10;1.70;;;9.10;99.90;;;;;;5068210;28;20040;-65
2022/06/21 02:56:21;;;;;;;2.45;1.77;;;9.10;99.90;;;;;;4988171;28;20086;-63
2022/06/21 02:58:51;;;;;;;1.83;1.55;;;9.10;99.90;;;;;;4995482;28;20085;-64
2022/06/21 03:01:40;;;;;;;1.60;1.35;;;9.10;99.90;;;;;;5007767;28;20101;-64
2022/06/21 03:04:06;;;;;;;1.77;1.23;;;9.00;99.90;;;;;;4991653;28;20121;-63
2022/06/21 03:06:33;;;;;;;1.58;1.48;;;9.10;99.90;;;;;;4990688;28;20058;-63
2022/06/21 03:09:04;;;;;;;2.45;1.40;;;9.10;99.90;;;;;;4984152;28;20516;-63
2022/06/21 03:11:35;;;;;;;1.88;1.20;;;9.00;99.90;;;;;;4988168;28;20129;-65
2022/06/21 03:14:07;;;;;;;1.30;1.20;;;9.00;99.90;;;;;;4988266;28;20049;-65
2022/06/21 03:16:34;;;;;;;3.97;1.33;;;9.00;99.90;;;;;;4990167;28;20046;-66
2022/06/21 03:19:04;;;;;;;3.28;1.48;;;9.00;99.90;;;;;;5004270;28;20499;-66
2022/06/21 03:21:33;;;;;;;1.50;1.27;;;9.00;99.90;;;;;;5006455;28;20058;-63
2022/06/21 03:24:03;;;;;;;4.15;1.30;;;9.00;99.90;;;;;;4977027;28;20804;-64
2022/06/21 03:26:29;;;;;;;1.67;1.42;;;9.00;99.90;;;;;;4990346;28;20041;-63
2022/06/21 03:28:55;;;;;;;2.30;1.65;;;8.90;99.90;;;;;;5006772;28;20080;-65
2022/06/21 03:31:23;;;;;;;2.63;1.60;;;8.90;99.90;;;;;;5004039;28;20041;-65
2022/06/21 03:33:53;;;;;;;1.58;1.45;;;8.90;99.90;;;;;;5040568;28;20074;-63
2022/06/21 03:36:22;;;;;;;1.70;1.52;;;8.90;99.90;;;;;;5070099;28;20040;-65
2022/06/21 03:39:12;;;;;;;1.55;1.45;;;8.90;99.90;;;;;;5072338;28;20075;-63
2022/06/21 03:41:43;;;;;;;2.10;1.60;;;8.90;99.90;;;;;;5062303;28;20049;-63
2022/06/21 03:44:16;;;;;;;3.45;1.77;;;8.90;99.90;;;;;;5073253;28;20032;-65
2022/06/21 03:46:46;;;;;;;1.73;1.63;;;8.90;99.90;;;;;;5071304;28;20130;-65
2022/06/21 03:49:28;;;;;;;2.85;1.63;;;8.90;99.90;;;;;;5072484;28;20038;-64
2022/06/21 03:51:55;;;;;;;1.77;1.67;;;8.90;99.90;;;;;;5070414;28;20060;-65
2022/06/21 03:54:47;;;;;;;2.58;1.80;;;8.90;99.90;;;;;;5053617;28;20101;-64
2022/06/21 03:57:31;;;;;;;2.25;1.70;;;8.90;99.90;;;;;;5072039;28;20049;-64
2022/06/21 04:00:02;;;;;;;1.73;1.63;;;9.00;99.90;;;;;;5071706;28;21994;-63
2022/06/21 04:02:48;;;;;;;1.90;1.80;;;8.90;99.90;;;;;;5071923;28;20024;-66
2022/06/21 04:05:23;;;;;;;2.38;2.17;;;8.90;99.90;;;;;;5071839;28;20040;-63
2022/06/21 04:07:58;;;;;;;3.20;2.60;;;9.00;99.90;;;;;;5072482;28;20032;-64
2022/06/21 04:10:50;;;;;;;4.45;2.30;;;9.00;99.90;;;;;;5071764;28;20054;-64
2022/06/21 04:13:32;;;;;;;2.50;2.30;;;9.00;99.90;;;;;;5070504;28;20040;-63
2022/06/21 04:16:02;;;;;;;2.90;2.70;;;9.10;99.90;;;;;;5072417;28;20040;-63
2022/06/21 04:18:33;;;;;;;3.42;2.70;;;9.10;99.90;;;;;;5071777;28;20033;-65
2022/06/21 04:21:14;;;;;;;5.28;3.05;;;9.20;99.90;;;;;;5070188;28;20060;-63
2022/06/21 04:24:07;;;;;;;2.50;2.30;;;9.20;99.90;;;;;;5071793;28;20044;-64
2022/06/21 04:26:51;;;;;;;2.25;2.05;;;9.20;99.90;;;;;;5071377;28;20039;-63
2022/06/21 04:29:25;;;;;;;2.72;2.28;;;9.30;99.90;;;;;;5071316;28;20037;-65
2022/06/21 04:32:01;;;;;;;3.08;2.78;;;9.40;99.90;;;;;;5069848;28;20392;-63
2022/06/21 04:34:38;;;;;;;2.65;2.45;;;9.50;99.90;;;;;;5071321;28;20032;-64
2022/06/21 04:37:07;;;;;;;2.78;2.50;;;9.60;99.90;;;;;;5072319;28;20025;-65
2022/06/21 04:39:35;;;;;;;3.10;2.60;;;9.70;99.90;;;;;;5072540;28;20162;-65
2022/06/21 04:42:14;;;;;;;3.13;2.30;;;9.80;99.90;;;;;;5070683;28;20450;-65
2022/06/21 04:44:51;;;;;;;2.60;2.40;;;9.90;99.90;;;;;;5070240;28;20043;-66
2022/06/21 04:47:34;;;;;;;2.88;2.63;;;10.10;99.90;;;;;;5054046;28;20052;-65
2022/06/21 04:50:17;;;;;;;3.72;2.65;;;10.20;99.90;;;;;;5069922;28;20119;-64
2022/06/21 04:52:53;;;;;;;3.15;2.65;;;10.30;99.90;;;;;;5071110;28;20043;-63
2022/06/21 04:55:23;;;;;;;5.13;3.55;;;10.50;99.90;;;;;;5070380;28;20506;-63
2022/06/21 04:57:49;;;;;;;4.57;3.35;;;10.60;99.90;;;;;;5070774;28;20119;-65
2022/06/21 05:00:20;;;;;;;4.82;3.20;;;10.70;99.90;;;;;;5071973;28;20139;-65
2022/06/21 05:02:51;;;;;;;4.50;3.30;;;10.80;99.90;;;;;;5071257;28;20067;-64
2022/06/21 05:05:27;;;;;;;7.68;3.75;;;11.00;99.90;;;;;;5068901;28;20040;-63
2022/06/21 05:08:12;;;;;;;6.78;3.80;;;11.20;99.90;;;;;;5070557;28;20094;-64
2022/06/21 05:10:42;;;;;;;5.70;3.20;;;11.40;99.90;;;;;;5069939;28;20487;-65
2022/06/21 05:13:36;;;;;;;7.30;3.30;;;11.60;99.90;;;;;;5070736;28;20040;-63
2022/06/21 05:16:10;;;;;;;8.68;3.40;;;11.90;99.90;;;;;;5027509;28;20151;-65
2022/06/21 05:18:43;;;;;;;8.85;3.53;;;12.10;99.90;;;;;;5028401;28;20171;-64
2022/06/21 05:21:17;;;;;;;6.75;3.33;;;12.30;99.90;;;;;;5011780;28;20049;-63
2022/06/21 05:23:43;;;;;;;8.98;3.28;;;12.50;99.90;;;;;;5012920;28;20411;-65
2022/06/21 05:26:42;;;;;;;4.15;2.55;;;12.80;99.90;;;;;;5011713;28;20041;-64
2022/06/21 05:29:16;;;;;;;4.80;2.60;;;13.10;99.90;;;;;;5029098;28;20033;-64
2022/06/21 05:31:45;;;;;;;6.75;2.63;;;13.30;99.90;;;;;;5011799;28;20064;-65
2022/06/21 05:34:19;;;;;;;8.48;2.70;;;13.40;99.90;;;;;;5028280;28;20057;-64
2022/06/21 05:37:19;;;;;;;7.32;2.60;;;13.50;99.90;;;;;;5027327;28;20045;-63
2022/06/21 05:39:49;;;;;;;5.50;2.33;;;13.60;99.90;;;;;;4949582;29;20096;-64
2022/06/21 05:42:18;;;;;;;6.95;2.70;;;13.90;99.90;;;;;;4934703;29;20131;-64
2022/06/21 05:44:53;;;;;;;5.95;2.53;;;14.20;99.90;;;;;;4946041;29;20071;-64
2022/06/21 05:47:40;;;;;;;6.95;2.35;;;14.40;99.90;;;;;;4936499;29;20055;-65
2022/06/21 05:50:11;;;;;;;7.28;2.63;;;14.60;99.90;;;;;;4950080;29;20475;-64
2022/06/21 05:52:45;;;;;;;7.07;2.33;;;14.50;99.90;;;;;;4954028;28;20054;-64
2022/06/21 05:55:34;;;;;;;6.95;2.20;;;14.50;99.90;;;;;;4992375;28;20048;-64
2022/06/21 05:58:17;;;;;;;5.28;1.85;;;14.50;99.90;;;;;;4991645;28;20410;-64
2022/06/21 06:00:52;;;;;;;;;;;14.50;99.90;;;;;;4991492;28;20061;-64
2022/06/21 06:03:37;;;;;;;6.47;1.90;;;14.60;99.90;;;;;;5008315;28;19940;-64
2022/06/21 06:06:08;;;;;;;6.07;2.03;;;14.60;99.90;;;;;;4991749;28;20125;-66
2022/06/21 06:08:40;;;;;;;7.43;2.05;;;14.70;99.90;;;;;;4991046;28;20069;-65
2022/06/21 06:11:10;;;;;;;;;;;14.80;99.90;;;;;;4991078;28;20093;-63
2022/06/21 06:13:39;;;;;;;5.78;2.08;;;14.90;99.90;;;;;;5005481;28;20321;-66
2022/06/21 06:16:24;;;;;;;5.40;2.40;;;15.00;99.90;;;;;;5011407;28;20052;-64
2022/06/21 06:18:59;;;;;;;6.20;2.47;;;15.10;99.90;;;;;;5068778;28;20672;-66
2022/06/21 06:21:55;;;;;;;6.90;2.28;;;15.30;99.90;;;;;;5070075;28;20075;-65
2022/06/21 06:24:27;;;;;;;3.33;1.85;;;15.50;99.90;;;;;;5057341;28;20049;-64
2022/06/21 06:26:59;;;;;;;8.77;2.50;;;15.70;99.90;;;;;;5067062;28;20097;-64
2022/06/21 06:29:43;;;;;;;7.93;2.55;;;15.80;99.90;;;;;;5068787;28;20420;-65
2022/06/21 06:32:17;;;;;;;9.10;2.38;;;16.00;99.90;;;;;;5067557;28;20024;-65
2022/06/21 06:34:48;;;;;;;6.00;2.03;;;16.10;99.90;;;;;;5068758;28;20048;-64
2022/06/21 06:37:20;;;;;;;7.30;1.92;;;16.20;99.90;;;;;;5069580;28;20568;-65
2022/06/21 06:39:45;;;;;;;5.53;1.88;;;16.30;99.90;;;;;;5068525;28;20384;-65
2022/06/21 06:42:24;;;;;;;7.10;1.77;;;16.10;99.90;;;;;;5069146;28;20093;-65
2022/06/21 06:44:59;;;;;;;5.80;1.23;;;16.20;99.90;;;;;;5068618;28;20047;-67
2022/06/21 06:47:48;;;;;;;4.85;1.15;;;16.10;99.90;;;;;;5069003;28;20048;-66
2022/06/21 06:50:27;;;;;;;5.80;1.58;;;16.00;99.90;;;;;;5070443;28;20040;-65
2022/06/21 06:53:10;;;;;;;4.82;1.63;;;15.90;99.90;;;;;;5069754;28;20040;-66
2022/06/21 06:55:42;;;;;;;6.07;1.58;;;15.80;99.90;;;;;;5068614;28;20402;-64
2022/06/21 06:58:23;;;;;;;5.15;1.50;;;15.90;99.90;;;;;;5068726;28;20418;-65
2022/06/21 07:00:54;;;;;;;6.57;1.63;;;16.20;99.90;;;;;;5068501;28;20045;-65
2022/06/21 07:03:24;;;;;;;4.80;1.75;;;16.50;99.90;;;;;;5070089;28;20077;-64
2022/06/21 07:05:54;;;;;;;5.80;1.60;;;16.70;99.90;;;;;;5069676;28;20507;-63
2022/06/21 07:08:38;;;;;;;5.78;1.90;;;16.80;99.90;;;;;;5069930;28;20497;-65
2022/06/21 07:11:15;;;;;;;6.20;1.90;;;16.70;99.90;;;;;;5067329;28;20052;-64
2022/06/21 07:13:42;;;;;;;5.65;1.50;;;16.60;99.90;;;;;;5069922;28;20041;-64
2022/06/21 07:16:14;;;;;;;5.45;1.60;;;16.80;99.90;;;;;;5068339;28;21571;-66
2022/06/21 07:18:47;;;;;;;5.60;1.42;;;17.10;99.90;;;;;;5068384;28;20090;-64
2022/06/21 07:21:14;;;;;;;5.03;1.30;;;17.30;99.90;;;;;;5067947;28;20098;-63
2022/06/21 07:23:40;;;;;;;7.50;2.22;;;17.40;99.90;;;;;;5069599;28;20052;-64
2022/06/21 07:26:21;;;;;;;6.45;1.67;;;17.50;99.90;;;;;;5068527;28;20044;-64
2022/06/21 07:28:56;;;;;;;5.90;1.27;;;17.70;99.90;;;;;;5068649;28;20867;-64
2022/06/21 07:31:37;;;;;;;6.82;1.58;;;17.70;99.90;;;;;;5069632;28;20045;-66
2022/06/21 07:34:08;;;;;;;6.13;1.38;;;17.70;99.90;;;;;;5068729;28;20044;-66
2022/06/21 07:36:56;;;;;;;3.15;1.15;;;17.80;99.90;;;;;;5069560;28;20044;-63
2022/06/21 07:39:47;;;;;;;4.43;1.20;;;17.80;99.90;;;;;;5068163;28;20048;-66
2022/06/21 07:42:24;;;;;;;3.65;1.15;;;17.90;99.90;;;;;;5069226;28;20107;-63
2022/06/21 07:44:53;;;;;;;5.40;1.30;;;18.10;99.90;;;;;;5069567;28;20056;-64
2022/06/21 07:47:42;;;;;;;5.38;1.48;;;18.00;99.90;;;;;;5069456;28;20399;-66
2022/06/21 07:50:39;;;;;;;5.07;1.40;;;18.00;99.90;;;;;;5068152;28;20041;-65
2022/06/21 07:53:20;;;;;;;3.95;1.00;;;18.40;99.90;;;;;;5010083;28;20077;-64
2022/06/21 07:55:51;;;;;;;6.65;1.20;;;18.50;99.90;;;;;;5027263;28;20041;-65
2022/06/21 07:58:41;;;;;;;4.95;1.35;;;18.40;99.90;;;;;;5026985;28;20425;-63
2022/06/21 08:07:10;;;;;;;4.85;1.42;;;18.50;99.90;;;;;;5010590;28;20527;-65
2022/06/21 08:09:49;;;;;;;6.30;1.50;;;18.40;99.90;;;;;;5010713;28;20057;-65
2022/06/21 08:12:16;;;;;;;4.35;1.60;;;18.80;99.90;;;;;;5010270;28;20048;-64
2022/06/21 08:14:42;;;;;;;3.83;1.02;;;18.90;99.90;;;;;;5026994;28;20034;-65
2022/06/21 08:17:31;;;;;;;4.32;1.10;;;18.90;99.90;;;;;;5010481;28;20107;-64
2022/06/21 08:20:06;;;;;;;6.35;1.08;;;19.20;99.90;;;;;;5010133;28;20048;-63
2022/06/21 08:22:49;;;;;;;3.40;1.20;;;19.10;99.90;;;;;;5028564;28;20114;-64
2022/06/21 08:25:29;;;;;;;5.60;1.00;;;19.10;99.90;;;;;;5030720;28;20108;-65
2022/06/21 08:28:07;;;;;;;5.88;1.58;;;19.30;99.90;;;;;;5013999;28;20369;-64
2022/06/21 08:30:39;;;;;;;6.53;1.40;;;19.50;99.90;;;;;;5068427;28;20473;-65
2022/06/21 08:33:08;;;;;;;2.78;1.10;;;19.60;99.90;;;;;;5072600;28;20028;-64
2022/06/21 08:35:43;;;;;;;4.95;1.23;;;19.70;99.90;;;;;;5072354;28;20090;-64
2022/06/21 08:38:27;;;;;;;3.70;1.30;;;19.90;99.90;;;;;;5071044;28;20072;-64
2022/06/21 08:41:52;;;;;;;5.15;1.40;;;20.00;99.90;;;;;;5071274;28;20126;-66
2022/06/21 08:44:46;;;;;;;3.25;1.48;;;20.20;99.90;;;;;;5070939;28;20047;-66
2022/06/21 08:47:30;;;;;;;4.28;1.15;;;20.30;99.90;;;;;;5072518;28;20035;-65
2022/06/21 08:50:08;;;;;;;4.63;1.20;;;20.30;99.90;;;;;;5071300;28;20372;-65
2022/06/21 08:52:52;;;;;;;4.68;1.40;;;20.20;99.90;;;;;;5070840;28;20060;-65
2022/06/21 08:55:53;;;;;;;4.47;1.30;;;19.90;99.90;;;;;;5070927;28;20033;-65
2022/06/21 08:58:46;;;;;;;4.10;1.08;;;20.10;99.90;;;;;;5013184;28;20183;-64
2022/06/21 09:01:31;;;;;;;5.60;1.40;;;20.30;99.90;;;;;;5013294;28;20053;-66
2022/06/21 09:04:06;;;;;;;5.85;1.63;;;20.60;99.90;;;;;;5029641;28;20536;-64
2022/06/21 09:07:05;;;;;;;5.50;1.33;;;20.90;99.90;;;;;;5013131;28;20084;-66
2022/06/21 09:09:37;;;;;;;6.18;1.02;;;20.90;99.90;;;;;;5012912;28;20128;-65
2022/06/21 09:12:17;;;;;;;3.85;1.30;;;21.00;99.90;;;;;;5011743;28;20148;-67
2022/06/21 09:15:01;;;;;;;4.93;1.20;;;21.00;99.90;;;;;;5029346;28;20152;-66
2022/06/21 09:17:45;;;;;;;3.13;1.23;;;21.30;99.90;;;;;;5029563;28;20083;-66
2022/06/21 09:20:23;;;;;;;4.00;1.00;;;21.40;99.90;;;;;;5012916;28;20486;-66
2022/06/21 09:22:57;;;;;;;3.20;1.50;;;21.70;99.90;;;;;;5029456;28;20128;-66
2022/06/21 09:25:35;;;;;;;2.83;0.90;;;21.90;99.50;;;;;;5029764;28;20048;-65
2022/06/21 09:28:14;;;;;;;4.07;1.00;;;22.10;99.00;;;;;;5029018;28;20115;-67
2022/06/21 09:30:50;;;;;;;5.68;1.20;;;22.10;99.00;;;;;;5012594;28;20518;-65
2022/06/21 09:33:34;;;;;;;3.20;1.23;;;22.10;98.60;;;;;;5028367;28;20164;-65
2022/06/21 09:36:14;;;;;;;4.88;1.60;;;22.10;98.00;;;;;;5064720;28;20414;-64
2022/06/21 09:38:53;;;;;;;3.65;1.05;;;21.80;96.80;;;;;;5071206;28;20056;-66
2022/06/21 09:41:42;;;;;;;2.85;1.00;;;21.80;98.10;;;;;;5069943;28;20411;-65
2022/06/21 09:44:46;;;;;;;4.57;1.48;;;21.80;97.90;;;;;;5069723;28;20043;-67
2022/06/21 09:47:26;;;;;;;5.82;1.60;;;22.00;98.50;;;;;;5069699;28;20086;-67
2022/06/21 09:50:01;;;;;;;2.55;1.13;;;22.40;98.00;;;;;;5069982;28;20036;-66
2022/06/21 09:52:56;;;;;;;4.57;1.33;;;22.50;97.80;;;;;;5069839;28;20157;-66
2022/06/21 09:55:28;;;;;;;4.05;1.60;;;22.50;96.40;;;;;;5070991;28;20064;-65
2022/06/21 09:58:51;;;;;;;5.20;1.52;;;22.70;96.80;;;;;;5071101;28;20059;-65
2022/06/21 10:01:27;;;;;;;2.90;1.30;;;22.90;97.20;;;;;;5011933;28;20049;-65
2022/06/21 10:03:59;;;;;;;4.65;1.33;;;23.00;96.30;;;;;;4994857;28;20053;-66
2022/06/21 10:06:43;;;;;;;4.47;1.15;;;23.20;97.00;;;;;;5011995;28;20084;-64
2022/06/21 10:09:23;;;;;;;3.33;1.30;;;23.40;97.10;;;;;;5028465;28;20048;-65
2022/06/21 10:12:14;;;;;;;4.05;1.10;;;23.40;96.10;;;;;;5012128;28;20042;-65
2022/06/21 10:15:17;;;;;;;3.00;1.00;;;23.50;94.90;;;;;;5011692;28;20041;-64
2022/06/21 10:18:00;;;;;;;3.53;1.10;;;23.70;95.70;;;;;;5011838;28;20044;-67
2022/06/21 10:20:41;;;;;;;5.18;1.17;;;23.50;94.50;;;;;;5028194;28;20045;-65
2022/06/21 10:23:25;;;;;;;4.20;1.10;;;23.40;93.60;;;;;;5028287;28;20038;-65
2022/06/21 10:25:54;;;;;;;3.85;1.20;;;23.30;93.80;;;;;;5011991;28;20045;-65
2022/06/21 10:29:12;;;;;;;3.88;1.30;;;23.40;94.00;;;;;;5011970;28;20678;-65
2022/06/21 10:31:56;;;;;;;3.17;1.10;;;23.30;92.60;;;;;;4949980;29;20438;-65
2022/06/21 10:34:46;;;;;;;3.75;0.98;;;23.60;93.70;;;;;;4957554;28;20035;-66
2022/06/21 10:37:38;;;;;;;4.75;1.00;;;23.80;93.70;;;;;;5008267;28;20056;-67
2022/06/21 10:40:10;;;;;;;3.40;1.20;;;23.90;93.30;;;;;;5008330;28;20121;-65
2022/06/21 10:43:12;;;;;;;3.67;0.90;;;24.00;93.20;;;;;;5008105;28;20050;-64
2022/06/21 10:45:56;;;;;;;3.08;0.73;;;24.00;91.90;;;;;;4991361;28;20045;-64
2022/06/21 10:48:58;;;;;;;2.88;0.80;;;24.10;92.20;;;;;;5008064;28;20037;-65
2022/06/21 10:51:42;;;;;;;2.97;0.82;;;23.90;86.80;;;;;;4990931;28;20120;-65
2022/06/21 10:54:17;;;;;;;2.08;1.00;;;23.80;90.60;;;;;;5008184;28;20038;-67
2022/06/21 10:57:09;;;;;;;2.65;0.80;;;24.10;91.30;;;;;;4991391;28;20054;-66
2022/06/21 11:02:55;;;;;;;3.40;1.13;;;24.30;91.20;;;;;;5041731;28;20464;-64
2022/06/21 11:05:20;;;;;;;2.42;0.80;;;24.30;90.50;;;;;;5069847;28;20068;-65
2022/06/21 11:08:01;;;;;;;2.97;0.75;;;24.20;90.50;;;;;;5068450;28;20080;-65
2022/06/21 11:10:37;;;;;;;3.05;0.93;;;24.00;88.30;;;;;;5068477;28;20056;-66
2022/06/21 11:13:06;;;;;;;2.47;0.82;;;24.00;87.50;;;;;;5051795;28;20040;-64
2022/06/21 11:15:58;;;;;;;3.35;1.00;;;24.10;88.90;;;;;;5068624;28;20151;-65
2022/06/21 11:18:39;;;;;;;5.03;1.03;;;24.20;90.40;;;;;;5068894;28;20395;-64
2022/06/21 11:21:44;;;;;;;2.22;0.95;;;24.00;89.80;;;;;;5068049;28;20438;-66
2022/06/21 11:24:40;;;;;;;2.00;0.90;;;24.20;89.40;;;;;;5069612;28;20041;-64
2022/06/21 11:27:39;;;;;;;2.35;0.80;;;24.10;89.80;;;;;;5068473;28;20075;-66
2022/06/21 11:30:09;;;;;;;5.22;2.05;;;24.20;89.20;;;;;;5069565;28;20043;-65
2022/06/21 11:32:58;;;;;;;2.40;1.02;;;24.10;87.20;;;;;;5051558;28;20072;-65
2022/06/21 11:35:28;;;;;;;3.35;1.08;;;24.00;88.00;;;;;;5027153;28;20163;-66
2022/06/21 11:38:01;;;;;;;2.90;0.80;;;23.80;87.60;;;;;;5010339;28;20436;-65
2022/06/21 11:40:47;;;;;;;3.15;0.85;;;23.80;90.00;;;;;;5010574;28;20083;-65
2022/06/21 11:43:35;;;;;;;3.78;1.00;;;23.80;89.20;;;;;;5027094;28;20165;-65
2022/06/21 11:46:40;;;;;;;2.40;0.93;;;23.90;89.80;;;;;;4997234;28;20041;-66
2022/06/21 11:49:22;;;;;;;3.53;0.95;;;23.70;85.50;;;;;;4933036;29;20051;-63
2022/06/21 11:51:56;;;;;;;;;;;23.70;86.60;;;;;;4949655;29;20134;-64
2022/06/21 11:54:30;;;;;;;3.30;1.00;;;23.50;86.40;;;;;;4932961;29;19918;-65
2022/06/21 11:57:16;;;;;;;2.95;0.73;;;23.50;85.90;;;;;;4934041;29;20048;-65
2022/06/21 11:59:42;;;;;;;1.45;0.68;;;23.60;87.50;;;;;;4936730;29;20059;-65
2022/06/21 12:02:32;;;;;;;5.00;0.77;;;23.70;87.30;;;;;;4936636;29;20380;-65
2022/06/21 12:05:24;;;;;;;3.13;0.80;;;23.70;87.60;;;;;;4936560;29;20055;-65
2022/06/21 12:08:20;;;;;;;2.03;0.93;;;23.70;87.90;;;;;;4952877;29;20067;-65
2022/06/21 12:10:50;;;;;;;2.58;0.80;;;23.90;86.60;;;;;;4952676;29;20182;-65
2022/06/21 12:13:27;;;;;;;1.45;0.70;;;23.70;86.10;;;;;;4987765;28;20054;-67
2022/06/21 12:16:17;;;;;;;4.05;0.70;;;23.70;86.00;;;;;;5010914;28;20029;-66
2022/06/21 12:18:56;;;;;;;3.00;0.68;;;23.60;84.70;;;;;;4994622;28;20092;-64
2022/06/21 12:21:29;;;;;;;2.85;0.60;;;23.50;85.40;;;;;;5010456;28;20092;-66
2022/06/21 12:23:57;;;;;;;2.72;0.60;;;23.30;82.90;;;;;;5008945;28;20044;-63
2022/06/21 12:26:26;;;;;;;2.72;0.80;;;23.30;84.80;;;;;;5071337;28;20041;-64
2022/06/21 12:28:54;;;;;;;4.22;0.68;;;23.30;83.40;;;;;;5072881;28;20433;-65
2022/06/21 12:31:22;;;;;;;3.72;0.70;;;23.30;84.50;;;;;;5072545;28;20471;-67
2022/06/21 12:33:55;;;;;;;3.53;0.85;;;23.30;86.10;;;;;;5071515;28;20488;-66
2022/06/21 12:36:33;;;;;;;3.58;0.70;;;23.30;84.40;;;;;;5071276;28;20092;-65
2022/06/21 12:39:05;;;;;;;3.45;0.73;;;23.20;85.10;;;;;;5071533;28;20778;-65
2022/06/21 12:41:37;;;;;;;;;;;23.10;85.60;;;;;;5071398;28;20071;-65
2022/06/21 12:44:18;;;;;;;2.13;0.60;;;23.10;85.80;;;;;;5071041;28;19924;-66
2022/06/21 12:46:50;;;;;;;2.37;0.80;;;23.20;85.10;;;;;;5071191;28;20044;-64
2022/06/21 12:49:29;;;;;;;2.72;0.90;;;23.10;85.60;;;;;;5071030;28;20053;-65
2022/06/21 12:52:05;;;;;;;8.48;0.70;;;23.30;86.10;;;;;;5070968;28;20373;-65
2022/06/21 12:54:30;;;;;;;7.35;1.10;;;23.30;85.90;;;;;;5070727;28;20051;-64
2022/06/21 12:56:59;;;;;;;2.05;0.70;;;23.40;86.60;;;;;;5054126;28;20036;-64
2022/06/21 12:59:45;;;;;;;4.50;1.17;;;23.20;85.50;;;;;;5072364;28;20044;-65
2022/06/21 13:02:17;;;;;;;3.63;0.95;;;23.30;86.20;;;;;;5070869;28;20576;-66
2022/06/21 13:05:22;;;;;;;4.15;0.95;;;23.30;85.70;;;;;;5070860;28;20503;-65
2022/06/21 13:08:22;;;;;;;4.47;0.80;;;23.50;87.20;;;;;;5070768;28;20487;-63
2022/06/21 13:11:20;;;;;;;1.90;0.60;;;23.40;84.20;;;;;;5070754;28;20048;-64
2022/06/21 13:14:03;;;;;;;2.85;0.75;;;23.40;86.40;;;;;;5070432;28;20055;-65
2022/06/21 13:16:38;;;;;;;4.93;0.85;;;23.40;87.00;;;;;;5071817;28;20032;-67
2022/06/21 13:19:38;;;;;;;2.05;0.73;;;23.30;85.00;;;;;;5070764;28;20123;-67
2022/06/21 13:22:41;;;;;;;3.95;0.60;;;23.30;86.40;;;;;;5070362;28;20044;-65
2022/06/21 13:25:35;;;;;;;4.30;0.90;;;23.30;87.60;;;;;;5070666;28;20040;-64
2022/06/21 13:28:24;;;;;;;2.20;0.77;;;23.30;87.70;;;;;;5071415;28;20094;-64
2022/06/21 13:31:00;;;;;;;2.67;0.60;;;23.30;87.30;;;;;;5012460;28;20049;-65
2022/06/21 13:33:37;;;;;;;2.22;0.70;;;23.30;87.20;;;;;;5012655;28;20057;-66
2022/06/21 13:36:22;;;;;;;3.17;0.80;;;23.30;85.80;;;;;;5029222;28;20519;-65
2022/06/21 13:39:11;;;;;;;4.60;0.90;;;23.30;87.50;;;;;;5012474;28;20125;-65
2022/06/21 13:45:05;;;;;;;5.30;0.70;;;23.30;87.20;;;;;;5012446;28;20508;-66
2022/06/21 13:47:33;;;;;;;7.03;1.58;;;23.20;86.20;;;;;;5028957;28;20072;-64
2022/06/21 13:50:16;;;;;;;2.95;0.70;;;23.10;86.60;;;;;;5012312;28;20046;-65
2022/06/21 13:52:58;;;;;;;3.70;0.90;;;23.10;87.10;;;;;;5012504;28;20045;-65
2022/06/21 13:55:42;;;;;;;1.83;0.70;;;23.00;86.20;;;;;;5028721;28;20112;-65
2022/06/21 13:58:29;;;;;;;4.55;0.80;;;23.00;87.30;;;;;;4995900;28;20044;-65